createdAt,value
2022-07-28T00:00:18.361Z,52.80
2022-07-28T00:02:47.919Z,52.80
2022-07-28T00:05:16.142Z,52.80
2022-07-28T00:07:45.378Z,52.90
2022-07-28T00:10:13.828Z,52.80
2022-07-28T00:12:42.557Z,52.80
2022-07-28T00:15:12.175Z,52.90
2022-07-28T00:17:40.381Z,52.90
2022-07-28T00:20:12.140Z,52.90
2022-07-28T00:22:43.504Z,52.80
2022-07-28T00:25:12.608Z,53.00
2022-07-28T00:27:40.938Z,52.90
2022-07-28T00:30:10.417Z,52.90
2022-07-28T00:32:39.139Z,52.80
2022-07-28T00:35:10.124Z,52.80
2022-07-28T00:37:39.684Z,52.80
2022-07-28T00:40:09.762Z,52.70
2022-07-28T00:42:38.131Z,52.60
2022-07-28T00:45:08.147Z,52.70
2022-07-28T00:47:36.335Z,52.60
2022-07-28T00:50:05.997Z,52.60
2022-07-28T00:52:35.743Z,52.60
2022-07-28T00:55:06.037Z,52.70
2022-07-28T00:57:34.929Z,52.70
2022-07-28T01:00:03.904Z,52.70
2022-07-28T01:02:32.394Z,52.70
2022-07-28T01:05:00.638Z,52.70
2022-07-28T01:07:41.752Z,52.70
2022-07-28T01:10:17.671Z,52.70
2022-07-28T01:12:54.879Z,52.70
2022-07-28T01:15:30.781Z,52.70
2022-07-28T01:18:07.565Z,52.70
2022-07-28T01:20:40.127Z,52.80
2022-07-28T01:23:35.297Z,52.70
2022-07-28T01:26:21.220Z,52.70
2022-07-28T01:29:04.506Z,52.70
2022-07-28T01:31:39.766Z,52.70
2022-07-28T01:34:14.324Z,52.90
2022-07-28T01:36:47.568Z,52.60
2022-07-28T01:39:17.332Z,52.60
2022-07-28T01:41:46.227Z,52.60
2022-07-28T01:44:27.260Z,52.60
2022-07-28T01:47:01.080Z,52.70
2022-07-28T01:49:31.161Z,52.70
2022-07-28T01:52:01.856Z,52.70
2022-07-28T01:54:32.114Z,52.70
2022-07-28T01:57:01.510Z,52.70
2022-07-28T01:59:31.886Z,52.70
2022-07-28T02:02:03.519Z,52.70
2022-07-28T02:04:34.349Z,52.70
2022-07-28T02:07:03.662Z,52.70
2022-07-28T02:09:32.972Z,52.70
2022-07-28T02:12:01.928Z,52.60
2022-07-28T02:14:31.403Z,52.70
2022-07-28T02:17:10.107Z,52.70
2022-07-28T02:19:39.789Z,52.70
2022-07-28T02:22:09.166Z,52.70
2022-07-28T02:24:38.330Z,52.70
2022-07-28T02:27:12.720Z,52.60
2022-07-28T02:29:51.090Z,52.50
2022-07-28T02:32:30.197Z,52.60
2022-07-28T02:35:04.803Z,52.50
2022-07-28T02:37:38.649Z,52.50
2022-07-28T02:40:13.599Z,52.50
2022-07-28T02:42:43.084Z,52.90
2022-07-28T02:45:14.349Z,52.50
2022-07-28T02:47:50.653Z,52.60
2022-07-28T02:50:24.179Z,52.50
2022-07-28T02:52:56.355Z,52.50
2022-07-28T02:55:25.399Z,52.50
2022-07-28T02:57:56.955Z,52.60
2022-07-28T03:00:26.839Z,52.60
2022-07-28T03:02:57.395Z,52.50
2022-07-28T03:05:26.090Z,52.60
2022-07-28T03:07:54.668Z,52.50
2022-07-28T03:10:33.516Z,52.60
2022-07-28T03:13:05.297Z,52.60
2022-07-28T03:15:33.609Z,53.20
2022-07-28T03:18:06.069Z,52.60
2022-07-28T03:20:34.758Z,52.60
2022-07-28T03:23:04.190Z,52.50
2022-07-28T03:25:41.928Z,52.50
2022-07-28T03:28:14.015Z,52.50
2022-07-28T03:30:44.527Z,52.40
2022-07-28T03:33:14.177Z,52.50
2022-07-28T03:35:48.604Z,52.50
2022-07-28T03:38:23.754Z,52.50
2022-07-28T03:40:53.945Z,52.60
2022-07-28T03:43:25.871Z,52.40
2022-07-28T03:45:54.192Z,52.50
2022-07-28T03:48:30.166Z,52.50
2022-07-28T03:50:58.878Z,52.50
2022-07-28T03:53:29.755Z,52.50
2022-07-28T03:55:58.343Z,52.50
2022-07-28T03:58:29.197Z,52.50
2022-07-28T04:00:58.808Z,52.50
2022-07-28T04:03:43.354Z,52.50
2022-07-28T04:06:12.646Z,52.60
2022-07-28T04:08:40.939Z,52.50
2022-07-28T04:11:09.331Z,52.60
2022-07-28T04:13:37.613Z,52.50
2022-07-28T04:16:07.551Z,52.50
2022-07-28T04:18:37.291Z,52.40
2022-07-28T04:21:07.777Z,52.40
2022-07-28T04:23:35.945Z,52.40
2022-07-28T04:26:04.327Z,52.30
2022-07-28T04:28:32.516Z,52.30
2022-07-28T04:31:01.044Z,52.40
2022-07-28T04:33:29.307Z,52.30
2022-07-28T04:36:00.753Z,52.40
2022-07-28T04:38:29.185Z,52.40
2022-07-28T04:40:57.869Z,52.40
2022-07-28T04:43:26.250Z,52.40
2022-07-28T04:45:54.730Z,52.40
2022-07-28T04:48:24.009Z,52.40
2022-07-28T04:50:52.735Z,52.40
2022-07-28T04:53:24.179Z,52.30
2022-07-28T04:55:54.578Z,52.40
2022-07-28T04:58:23.579Z,52.40
2022-07-28T05:00:52.986Z,52.40
2022-07-28T05:03:22.224Z,52.50
2022-07-28T05:05:54.599Z,52.40
2022-07-28T05:08:26.164Z,52.40
2022-07-28T05:10:56.553Z,52.30
2022-07-28T05:13:31.921Z,52.30
2022-07-28T05:16:02.450Z,52.20
2022-07-28T05:18:30.867Z,52.20
2022-07-28T05:20:59.128Z,52.20
2022-07-28T05:23:28.770Z,52.20
2022-07-28T05:25:56.942Z,52.30
2022-07-28T05:28:25.221Z,52.30
2022-07-28T05:30:54.104Z,52.30
2022-07-28T05:33:22.236Z,52.30
2022-07-28T05:35:57.466Z,52.40
2022-07-28T05:38:26.089Z,52.40
2022-07-28T05:40:55.777Z,52.30
2022-07-28T05:43:23.947Z,52.40
2022-07-28T05:45:52.271Z,52.30
2022-07-28T05:48:22.035Z,52.40
2022-07-28T05:50:52.184Z,52.30
2022-07-28T05:53:21.213Z,52.30
2022-07-28T05:55:59.784Z,52.40
2022-07-28T05:58:31.675Z,52.40
2022-07-28T06:01:01.766Z,52.40
2022-07-28T06:03:31.967Z,52.30
2022-07-28T06:06:14.604Z,52.20
2022-07-28T06:08:43.708Z,52.30
2022-07-28T06:11:21.723Z,52.40
2022-07-28T06:13:53.494Z,52.30
2022-07-28T06:16:23.273Z,52.20
2022-07-28T06:18:52.411Z,52.20
2022-07-28T06:21:20.643Z,52.20
2022-07-28T06:23:48.793Z,52.20
2022-07-28T06:26:17.098Z,52.20
2022-07-28T06:28:45.244Z,52.20
2022-07-28T06:31:14.852Z,52.20
2022-07-28T06:33:43.082Z,52.20
2022-07-28T06:36:11.203Z,52.20
2022-07-28T06:38:39.365Z,52.20
2022-07-28T06:41:07.548Z,52.20
2022-07-28T06:43:39.003Z,52.20
2022-07-28T06:46:08.094Z,52.20
2022-07-28T06:48:39.334Z,52.20
2022-07-28T06:51:07.671Z,52.20
2022-07-28T06:53:35.888Z,52.30
2022-07-28T06:56:06.819Z,52.30
2022-07-28T06:58:35.737Z,52.40
2022-07-28T07:01:07.645Z,52.20
2022-07-28T07:03:37.679Z,52.20
2022-07-28T07:06:05.906Z,52.20
2022-07-28T07:08:34.767Z,52.20
2022-07-28T07:11:02.994Z,52.20
2022-07-28T07:13:32.202Z,52.20
2022-07-28T07:16:00.453Z,52.20
2022-07-28T07:18:28.647Z,52.20
2022-07-28T07:20:59.453Z,52.30
2022-07-28T07:23:27.652Z,52.30
2022-07-28T07:25:56.055Z,52.40
2022-07-28T07:28:24.218Z,52.20
2022-07-28T07:30:52.413Z,52.30
2022-07-28T07:33:20.707Z,52.20
2022-07-28T07:35:48.858Z,52.30
2022-07-28T07:38:18.338Z,52.30
2022-07-28T07:40:46.676Z,52.30
2022-07-28T07:43:14.775Z,52.30
2022-07-28T07:45:43.046Z,52.40
2022-07-28T07:48:11.572Z,52.30
2022-07-28T07:50:39.889Z,52.40
2022-07-28T07:53:08.205Z,52.40
2022-07-28T07:55:38.199Z,52.30
2022-07-28T07:58:07.345Z,52.40
2022-07-28T08:00:35.959Z,52.40
2022-07-28T08:03:04.212Z,52.30
2022-07-28T08:05:39.552Z,52.30
2022-07-28T08:08:08.118Z,52.30
2022-07-28T08:10:39.453Z,52.20
2022-07-28T08:13:08.428Z,52.20
2022-07-28T08:15:36.723Z,52.20
2022-07-28T08:18:05.099Z,52.20
2022-07-28T08:20:33.315Z,52.20
2022-07-28T08:23:01.681Z,52.20
2022-07-28T08:25:29.817Z,52.20
2022-07-28T08:27:59.347Z,52.80
2022-07-28T08:30:32.463Z,52.20
2022-07-28T08:33:02.754Z,52.20
2022-07-28T08:35:34.367Z,52.20
2022-07-28T08:38:04.826Z,52.20
2022-07-28T08:40:33.631Z,52.20
2022-07-28T08:43:13.651Z,52.20
2022-07-28T08:45:44.482Z,52.20
2022-07-28T08:48:13.941Z,52.30
2022-07-28T08:50:45.053Z,52.30
2022-07-28T08:53:15.543Z,52.70
2022-07-28T08:55:44.520Z,52.30
2022-07-28T08:58:14.992Z,52.40
2022-07-28T09:00:43.322Z,52.30
2022-07-28T09:03:13.870Z,52.30
2022-07-28T09:05:44.167Z,52.20
2022-07-28T09:08:13.102Z,52.30
2022-07-28T09:10:41.183Z,52.20
2022-07-28T09:13:09.432Z,52.20
2022-07-28T09:15:44.651Z,52.20
2022-07-28T09:18:13.608Z,52.30
2022-07-28T09:20:42.721Z,52.20
2022-07-28T09:23:42.594Z,52.00
2022-07-28T09:26:12.652Z,52.20
2022-07-28T09:28:53.025Z,52.20
2022-07-28T09:31:24.720Z,52.30
2022-07-28T09:34:01.964Z,52.20
2022-07-28T09:36:31.455Z,52.30
2022-07-28T09:38:59.630Z,52.30
2022-07-28T09:41:27.739Z,52.30
2022-07-28T09:43:56.078Z,52.40
2022-07-28T09:46:27.472Z,52.30
2022-07-28T09:49:01.338Z,52.30
2022-07-28T09:51:33.303Z,52.30
2022-07-28T09:54:11.347Z,52.30
2022-07-28T09:56:41.287Z,52.30
2022-07-28T09:59:09.586Z,52.30
2022-07-28T10:01:55.305Z,52.30
2022-07-28T10:04:32.764Z,52.40
2022-07-28T10:07:07.176Z,52.20
2022-07-28T10:09:35.587Z,52.20
2022-07-28T10:12:22.273Z,52.30
2022-07-28T10:14:52.663Z,52.30
2022-07-28T10:17:33.012Z,52.20
2022-07-28T10:20:02.829Z,52.20
2022-07-28T10:22:38.295Z,52.10
2022-07-28T10:25:12.560Z,52.10
2022-07-28T10:27:43.284Z,52.20
2022-07-28T10:30:13.625Z,52.20
2022-07-28T10:32:45.427Z,52.20
2022-07-28T10:35:16.229Z,52.20
2022-07-28T10:37:52.494Z,52.10
2022-07-28T10:40:27.395Z,52.20
2022-07-28T10:42:56.334Z,52.20
2022-07-28T10:45:42.016Z,52.20
2022-07-28T10:48:15.389Z,52.20
2022-07-28T10:50:44.148Z,52.40
2022-07-28T10:53:17.900Z,52.30
2022-07-28T10:55:53.565Z,52.20
2022-07-28T10:58:34.095Z,52.30
2022-07-28T11:01:06.250Z,52.40
2022-07-28T11:03:42.851Z,52.30
2022-07-28T11:06:29.299Z,52.30
2022-07-28T11:08:59.086Z,52.30
2022-07-28T11:11:47.387Z,52.30
2022-07-28T11:14:37.693Z,52.30
2022-07-28T11:17:24.164Z,52.30
2022-07-28T11:20:30.074Z,52.20
2022-07-28T11:22:51.690Z,52.30
2022-07-28T11:25:22.151Z,52.30
2022-07-28T11:28:06.295Z,52.30
2022-07-28T11:30:58.126Z,52.40
2022-07-28T11:33:46.864Z,52.40
2022-07-28T11:36:16.794Z,52.40
2022-07-28T11:39:23.882Z,52.40
2022-07-28T11:41:53.259Z,52.40
2022-07-28T11:44:28.956Z,52.40
2022-07-28T11:47:17.559Z,52.40
2022-07-28T11:49:47.540Z,52.90
2022-07-28T11:52:22.699Z,52.30
2022-07-28T11:54:59.366Z,52.30
2022-07-28T11:57:28.684Z,52.30
2022-07-28T12:00:02.203Z,52.30
2022-07-28T12:02:36.256Z,52.40
2022-07-28T12:05:12.004Z,52.40
2022-07-28T12:07:48.050Z,52.30
2022-07-28T12:13:28.697Z,52.30
2022-07-28T12:15:57.242Z,52.20
2022-07-28T12:18:25.575Z,52.20
2022-07-28T12:20:54.841Z,52.30
2022-07-28T12:23:38.673Z,52.30
2022-07-28T12:26:12.388Z,52.20
2022-07-28T12:28:49.983Z,52.20
2022-07-28T12:31:18.323Z,52.20
2022-07-28T12:33:46.679Z,52.20
2022-07-28T12:36:18.865Z,52.30
2022-07-28T12:38:48.674Z,52.40
2022-07-28T12:41:17.235Z,52.20
2022-07-28T12:43:52.021Z,52.30
2022-07-28T12:46:28.255Z,52.30
2022-07-28T12:49:03.071Z,52.30
2022-07-28T12:51:33.644Z,52.30
2022-07-28T12:54:03.899Z,52.30
2022-07-28T12:56:32.321Z,52.20
2022-07-28T12:59:08.783Z,52.20
2022-07-28T13:01:48.784Z,52.30
2022-07-28T13:04:18.400Z,52.20
2022-07-28T13:06:57.383Z,52.20
2022-07-28T13:09:32.868Z,52.20
2022-07-28T13:12:03.667Z,52.20
2022-07-28T13:14:41.535Z,52.20
2022-07-28T13:17:09.676Z,52.30
2022-07-28T13:19:38.035Z,52.20
2022-07-28T13:22:09.311Z,52.90
2022-07-28T13:24:39.218Z,52.30
2022-07-28T13:27:08.737Z,52.30
2022-07-28T13:29:36.889Z,52.30
2022-07-28T13:32:05.485Z,52.40
2022-07-28T13:34:33.785Z,52.40
2022-07-28T13:37:02.123Z,52.30
2022-07-28T13:39:30.260Z,52.40
2022-07-28T13:41:59.697Z,52.40
2022-07-28T13:44:35.198Z,52.40
2022-07-28T13:47:05.653Z,52.40
2022-07-28T13:49:37.352Z,52.40
2022-07-28T13:52:13.199Z,52.40
2022-07-28T13:54:41.625Z,52.40
2022-07-28T13:57:14.951Z,52.40
2022-07-28T13:59:44.298Z,52.20
2022-07-28T14:02:13.591Z,52.20
2022-07-28T14:04:45.918Z,52.20
2022-07-28T14:07:21.327Z,52.20
2022-07-28T14:09:51.182Z,52.30
2022-07-28T14:12:20.757Z,52.30
2022-07-28T14:14:49.219Z,52.30
2022-07-28T14:20:12.901Z,52.30
2022-07-28T14:22:41.497Z,52.30
2022-07-28T14:25:11.074Z,52.40
2022-07-28T14:27:41.271Z,52.40
2022-07-28T14:30:11.433Z,52.40
2022-07-28T14:32:40.422Z,52.40
2022-07-28T14:35:09.402Z,52.50
2022-07-28T14:38:11.263Z,52.40
2022-07-28T14:40:26.252Z,52.50
2022-07-28T14:42:55.794Z,52.50
2022-07-28T14:45:24.061Z,52.50
2022-07-28T14:47:52.426Z,52.50
2022-07-28T14:50:20.718Z,52.40
2022-07-28T14:52:49.025Z,52.40
2022-07-28T14:55:17.359Z,52.40
2022-07-28T14:57:48.742Z,52.40
2022-07-28T15:00:26.881Z,52.40
2022-07-28T15:02:56.759Z,52.50
2022-07-28T15:05:25.467Z,52.50
2022-07-28T15:07:53.618Z,52.50
2022-07-28T15:10:21.987Z,52.50
2022-07-28T15:12:51.937Z,52.50
2022-07-28T15:15:26.394Z,52.50
2022-07-28T15:17:57.396Z,52.50
2022-07-28T15:20:25.656Z,52.60
2022-07-28T15:22:53.864Z,52.60
2022-07-28T15:25:21.976Z,52.60
2022-07-28T15:27:50.080Z,52.60
2022-07-28T15:30:18.251Z,52.60
2022-07-28T15:32:57.113Z,52.50
2022-07-28T15:35:27.431Z,52.50
2022-07-28T15:37:56.150Z,52.60
2022-07-28T15:40:25.193Z,52.60
2022-07-28T15:42:53.335Z,52.50
2022-07-28T15:45:21.485Z,52.50
2022-07-28T15:47:49.962Z,52.50
2022-07-28T15:50:18.179Z,52.40
2022-07-28T15:52:47.784Z,52.40
2022-07-28T15:55:16.077Z,52.30
2022-07-28T15:57:44.369Z,52.40
2022-07-28T16:00:13.377Z,52.40
2022-07-28T16:02:41.636Z,52.40
2022-07-28T16:05:10.181Z,52.50
2022-07-28T16:07:41.918Z,52.50
2022-07-28T16:10:14.402Z,52.50
2022-07-28T16:12:42.515Z,52.50
2022-07-28T16:15:11.668Z,52.50
2022-07-28T16:17:41.665Z,52.50
2022-07-28T16:20:11.638Z,52.60
2022-07-28T16:22:40.791Z,52.60
2022-07-28T16:25:11.883Z,52.50
2022-07-28T16:27:45.893Z,52.60
2022-07-28T16:30:15.118Z,52.60
2022-07-28T16:32:43.595Z,52.60
2022-07-28T16:35:12.793Z,52.60
2022-07-28T16:37:41.535Z,52.60
2022-07-28T16:40:11.605Z,52.60
2022-07-28T16:42:39.864Z,52.50
2022-07-28T16:45:11.025Z,52.50
2022-07-28T16:47:39.171Z,52.50
2022-07-28T16:50:08.566Z,52.50
2022-07-28T16:52:36.865Z,52.60
2022-07-28T16:55:11.663Z,52.60
2022-07-28T16:57:42.832Z,52.50
2022-07-28T17:00:16.636Z,52.60
2022-07-28T17:02:45.153Z,52.60
2022-07-28T17:05:14.190Z,52.60
2022-07-28T17:07:45.639Z,52.70
2022-07-28T17:10:20.359Z,52.70
2022-07-28T17:12:49.905Z,52.60
2022-07-28T17:15:22.487Z,52.60
2022-07-28T17:17:51.226Z,52.60
2022-07-28T17:20:20.568Z,52.60
2022-07-28T17:22:48.899Z,52.60
2022-07-28T17:28:06.740Z,52.60
2022-07-28T17:30:36.761Z,52.60
2022-07-28T17:33:08.755Z,52.60
2022-07-28T17:35:38.465Z,52.60
2022-07-28T17:38:09.764Z,52.60
2022-07-28T17:40:40.092Z,52.60
2022-07-28T17:43:11.721Z,52.50
2022-07-28T17:45:41.382Z,52.50
2022-07-28T17:48:09.599Z,52.60
2022-07-28T17:50:37.915Z,52.60
2022-07-28T17:53:06.480Z,52.60
2022-07-28T17:56:00.286Z,52.60
2022-07-28T17:58:31.081Z,52.60
2022-07-28T18:01:09.592Z,52.60
2022-07-28T18:03:58.795Z,52.70
2022-07-28T18:06:30.798Z,52.60
2022-07-28T18:09:05.525Z,52.70
2022-07-28T18:11:37.576Z,52.60
2022-07-28T18:14:23.468Z,52.50
2022-07-28T18:16:53.030Z,52.60
2022-07-28T18:19:21.242Z,52.60
2022-07-28T18:21:49.689Z,52.60
2022-07-28T18:24:18.549Z,52.60
2022-07-28T18:26:47.150Z,52.60
2022-07-28T18:29:15.446Z,52.60
2022-07-28T18:31:46.678Z,52.60
2022-07-28T18:34:17.004Z,52.60
2022-07-28T18:36:45.817Z,52.60
2022-07-28T18:39:13.981Z,52.60
2022-07-28T18:41:46.588Z,52.50
2022-07-28T18:44:17.279Z,52.60
2022-07-28T18:46:46.248Z,52.60
2022-07-28T18:49:16.041Z,52.70
2022-07-28T18:51:45.345Z,52.70
2022-07-28T18:54:18.552Z,52.70
2022-07-28T18:56:49.937Z,52.70
2022-07-28T18:59:18.281Z,52.70
2022-07-28T19:01:46.504Z,52.70
2022-07-28T19:04:16.539Z,52.70
2022-07-28T19:06:44.923Z,52.70
2022-07-28T19:09:13.060Z,52.70
2022-07-28T19:11:45.691Z,52.70
2022-07-28T19:14:15.122Z,52.80
2022-07-28T19:16:43.762Z,52.80
2022-07-28T19:19:12.880Z,52.80
2022-07-28T19:21:43.356Z,52.70
2022-07-28T19:24:12.564Z,52.70
2022-07-28T19:26:41.440Z,52.70
2022-07-28T19:29:10.026Z,52.80
2022-07-28T19:31:38.468Z,52.70
2022-07-28T19:34:06.632Z,52.70
2022-07-28T19:36:34.807Z,52.60
2022-07-28T19:39:04.603Z,52.60
2022-07-28T19:41:32.898Z,52.60
2022-07-28T19:44:01.189Z,52.60
2022-07-28T19:46:29.828Z,52.70
2022-07-28T19:48:58.110Z,52.60
2022-07-28T19:51:27.049Z,52.70
2022-07-28T19:53:58.517Z,52.70
2022-07-28T19:56:31.619Z,52.70
2022-07-28T19:59:00.184Z,53.20
2022-07-28T20:01:28.822Z,52.70
2022-07-28T20:04:01.862Z,52.60
2022-07-28T20:06:32.725Z,52.70
2022-07-28T20:09:01.396Z,52.70
2022-07-28T20:11:32.751Z,52.70
2022-07-28T20:14:01.416Z,52.70
2022-07-28T20:16:29.960Z,52.70
2022-07-28T20:18:58.231Z,52.70
2022-07-28T20:21:27.095Z,52.80
2022-07-28T20:23:57.065Z,52.70
2022-07-28T20:26:26.917Z,52.70
2022-07-28T20:28:58.387Z,52.70
2022-07-28T20:31:26.785Z,52.70
2022-07-28T20:33:55.795Z,52.70
2022-07-28T20:36:29.508Z,52.60
2022-07-28T20:38:57.966Z,52.70
2022-07-28T20:41:26.363Z,52.70
2022-07-28T20:44:26.116Z,52.70
2022-07-28T20:46:44.169Z,52.70
2022-07-28T20:49:12.478Z,52.70
2022-07-28T20:51:50.893Z,52.70
2022-07-28T20:54:19.372Z,52.70
2022-07-28T20:56:47.546Z,52.70
2022-07-28T20:59:17.558Z,52.80
2022-07-28T21:01:45.847Z,52.70
2022-07-28T21:04:14.536Z,52.70
2022-07-28T21:06:51.111Z,53.30
2022-07-28T21:09:21.080Z,52.70
2022-07-28T21:11:49.440Z,52.70
2022-07-28T21:14:19.400Z,52.70
2022-07-28T21:16:47.815Z,52.70
2022-07-28T21:19:16.027Z,52.60
2022-07-28T21:21:44.206Z,52.60
2022-07-28T21:24:12.560Z,52.60
2022-07-28T21:26:42.643Z,52.70
2022-07-28T21:32:03.851Z,52.60
2022-07-28T21:34:35.296Z,52.60
2022-07-28T21:37:03.759Z,52.60
2022-07-28T21:39:32.709Z,52.60
2022-07-28T21:42:02.282Z,52.60
2022-07-28T21:44:32.872Z,52.60
2022-07-28T21:47:02.399Z,52.60
2022-07-28T21:49:31.345Z,52.60
2022-07-28T21:51:59.593Z,52.60
2022-07-28T21:54:27.887Z,52.60
2022-07-28T21:56:56.125Z,52.60
2022-07-28T21:59:24.273Z,52.60
2022-07-28T22:01:52.575Z,52.60
2022-07-28T22:04:22.382Z,52.60
2022-07-28T22:06:50.787Z,52.60
2022-07-28T22:09:18.941Z,52.60
2022-07-28T22:11:47.135Z,52.60
2022-07-28T22:14:15.669Z,52.60
2022-07-28T22:16:44.190Z,52.60
2022-07-28T22:19:12.812Z,52.60
2022-07-28T22:21:42.291Z,52.60
2022-07-28T22:24:10.607Z,52.50
2022-07-28T22:26:38.743Z,52.50
2022-07-28T22:29:06.986Z,52.50
2022-07-28T22:31:35.293Z,52.50
2022-07-28T22:34:03.590Z,52.50
2022-07-28T22:36:31.779Z,52.50
2022-07-28T22:39:01.336Z,52.60
2022-07-28T22:41:29.841Z,52.60
2022-07-28T22:43:58.085Z,52.60
2022-07-28T22:46:26.268Z,52.60
2022-07-28T22:48:54.644Z,52.60
2022-07-28T22:51:22.910Z,52.60
2022-07-28T22:53:51.100Z,52.60
2022-07-28T22:56:20.652Z,52.60
2022-07-28T22:58:49.523Z,52.70
2022-07-28T23:01:17.792Z,52.70
2022-07-28T23:03:46.305Z,52.60
2022-07-28T23:06:15.729Z,52.70
2022-07-28T23:08:44.330Z,52.70
2022-07-28T23:11:12.651Z,52.60
2022-07-28T23:13:42.126Z,52.60
2022-07-28T23:16:10.875Z,52.50
2022-07-28T23:18:40.584Z,52.50
2022-07-28T23:21:09.262Z,52.50
2022-07-28T23:23:37.929Z,52.40
2022-07-28T23:26:06.337Z,52.40
2022-07-28T23:28:36.166Z,52.40
2022-07-28T23:31:06.081Z,52.50
2022-07-28T23:33:56.005Z,52.40
2022-07-28T23:36:26.476Z,52.40
2022-07-28T23:38:56.410Z,52.40
2022-07-28T23:41:25.130Z,52.40
2022-07-28T23:43:53.577Z,52.40
2022-07-28T23:46:23.156Z,52.50
2022-07-28T23:48:52.031Z,52.40
2022-07-28T23:51:21.207Z,52.50
2022-07-28T23:53:55.935Z,52.50
2022-07-28T23:56:24.453Z,52.50
2022-07-28T23:58:52.593Z,52.50
